createdAt,value
2022-08-17T00:03:42.715Z,23.07
2022-08-17T00:06:13.225Z,23.05
2022-08-17T00:08:46.345Z,23.05
2022-08-17T00:11:20.143Z,23.03
2022-08-17T00:13:55.893Z,23.02
2022-08-17T00:16:50.484Z,23.07
2022-08-17T00:19:24.354Z,23.01
2022-08-17T00:22:33.753Z,22.94
2022-08-17T00:24:40.482Z,22.94
2022-08-17T00:27:08.316Z,22.94
2022-08-17T00:29:35.315Z,22.92
2022-08-17T00:33:15.280Z,22.92
2022-08-17T00:34:50.637Z,22.90
2022-08-17T00:37:17.623Z,22.87
2022-08-17T00:39:44.643Z,22.85
2022-08-17T00:42:16.821Z,22.82
2022-08-17T00:44:45.014Z,22.76
2022-08-17T00:47:11.941Z,22.73
2022-08-17T00:49:38.822Z,22.73
2022-08-17T00:52:15.669Z,22.78
2022-08-17T00:54:46.692Z,22.61
2022-08-17T00:57:20.265Z,22.56
2022-08-17T01:00:03.362Z,22.50
2022-08-17T01:02:42.370Z,22.48
2022-08-17T01:05:18.460Z,22.49
2022-08-17T01:07:48.107Z,22.37
2022-08-17T01:10:59.361Z,22.30
2022-08-17T01:13:04.791Z,22.23
2022-08-17T01:15:35.218Z,22.21
2022-08-17T01:18:02.913Z,22.22
2022-08-17T01:20:30.012Z,22.28
2022-08-17T01:23:16.398Z,22.30
2022-08-17T01:25:51.640Z,22.41
2022-08-17T01:28:33.219Z,22.49
2022-08-17T01:31:07.476Z,22.46
2022-08-17T01:33:34.448Z,22.49
2022-08-17T01:36:01.516Z,22.38
2022-08-17T01:38:32.035Z,22.40
2022-08-17T01:41:06.122Z,22.38
2022-08-17T01:44:01.608Z,22.23
2022-08-17T01:46:32.225Z,22.16
2022-08-17T01:48:59.622Z,22.08
2022-08-17T01:51:32.845Z,22.06
2022-08-17T01:54:05.765Z,22.08
2022-08-17T01:56:35.246Z,22.12
2022-08-17T01:59:03.125Z,22.03
2022-08-17T02:01:32.542Z,22.09
2022-08-17T02:04:01.087Z,22.14
2022-08-17T02:06:31.454Z,22.21
2022-08-17T02:09:16.403Z,22.21
2022-08-17T02:11:44.955Z,22.23
2022-08-17T02:14:13.834Z,22.20
2022-08-17T02:16:41.646Z,22.22
2022-08-17T02:19:14.192Z,22.10
2022-08-17T02:21:42.929Z,22.01
2022-08-17T02:24:13.472Z,21.96
2022-08-17T02:26:40.658Z,21.86
2022-08-17T02:29:07.854Z,21.69
2022-08-17T02:31:35.758Z,21.58
2022-08-17T02:34:04.930Z,21.63
2022-08-17T02:36:34.341Z,21.51
2022-08-17T02:39:07.115Z,21.26
2022-08-17T02:41:34.294Z,20.92
2022-08-17T02:44:01.611Z,20.96
2022-08-17T02:46:30.775Z,20.98
2022-08-17T02:48:58.042Z,21.02
2022-08-17T02:51:25.510Z,21.07
2022-08-17T02:53:52.860Z,21.17
2022-08-17T02:56:39.859Z,21.22
2022-08-17T02:59:06.822Z,21.28
2022-08-17T03:01:33.768Z,21.27
2022-08-17T03:04:00.938Z,21.34
2022-08-17T03:06:31.963Z,21.32
2022-08-17T03:08:59.134Z,21.40
2022-08-17T03:11:26.099Z,21.46
2022-08-17T03:13:53.076Z,21.45
2022-08-17T03:16:19.948Z,21.49
2022-08-17T03:18:47.027Z,21.55
2022-08-17T03:21:14.144Z,21.57
2022-08-17T03:23:42.349Z,21.62
2022-08-17T03:26:12.358Z,21.65
2022-08-17T03:28:42.381Z,21.63
2022-08-17T03:31:09.579Z,21.60
2022-08-17T03:33:36.579Z,21.63
2022-08-17T03:36:03.863Z,21.61
2022-08-17T03:38:38.991Z,21.63
2022-08-17T03:41:07.502Z,21.67
2022-08-17T03:43:34.927Z,21.71
2022-08-17T03:46:27.883Z,21.80
2022-08-17T03:49:25.504Z,21.74
2022-08-17T03:52:11.771Z,21.79
2022-08-17T03:54:58.360Z,21.81
2022-08-17T03:57:26.279Z,21.90
2022-08-17T03:59:54.432Z,21.98
2022-08-17T04:02:32.058Z,22.05
2022-08-17T04:04:59.335Z,22.21
2022-08-17T04:07:29.812Z,22.42
2022-08-17T04:09:58.301Z,22.60
2022-08-17T04:12:26.365Z,22.69
2022-08-17T04:14:54.938Z,22.92
2022-08-17T04:17:25.684Z,23.07
2022-08-17T04:19:53.405Z,23.31
2022-08-17T04:22:30.666Z,23.41
2022-08-17T04:25:07.845Z,23.60
2022-08-17T04:27:34.834Z,23.69
2022-08-17T04:30:02.669Z,23.86
2022-08-17T04:33:00.516Z,24.01
2022-08-17T04:35:25.737Z,24.23
2022-08-17T04:37:53.810Z,24.42
2022-08-17T04:40:41.225Z,24.64
2022-08-17T04:43:14.342Z,24.86
2022-08-17T04:45:54.881Z,25.04
2022-08-17T04:48:36.381Z,25.14
2022-08-17T04:51:11.996Z,25.29
2022-08-17T04:53:44.724Z,25.48
2022-08-17T04:56:16.863Z,25.38
2022-08-17T04:58:49.789Z,25.54
2022-08-17T05:01:19.078Z,25.53
2022-08-17T05:03:54.904Z,25.60
2022-08-17T05:06:22.788Z,25.77
2022-08-17T05:08:49.758Z,25.93
2022-08-17T05:11:16.973Z,26.07
2022-08-17T05:13:44.977Z,26.35
2022-08-17T05:16:12.173Z,26.73
2022-08-17T05:18:39.238Z,26.91
2022-08-17T05:21:07.091Z,27.16
2022-08-17T05:23:41.769Z,27.34
2022-08-17T05:26:26.153Z,27.61
2022-08-17T05:28:57.204Z,27.85
2022-08-17T05:31:27.532Z,27.98
2022-08-17T05:33:54.577Z,28.26
2022-08-17T05:36:41.882Z,28.50
2022-08-17T05:39:08.694Z,28.75
2022-08-17T05:41:42.902Z,29.06
2022-08-17T05:44:09.905Z,29.34
2022-08-17T05:46:42.935Z,29.52
2022-08-17T05:49:11.266Z,29.77
2022-08-17T05:52:18.786Z,29.88
2022-08-17T05:55:24.453Z,30.19
2022-08-17T05:58:35.863Z,30.28
2022-08-17T06:01:31.799Z,30.10
2022-08-17T06:04:12.740Z,30.29
2022-08-17T06:06:48.035Z,30.01
2022-08-17T06:09:30.113Z,30.46
2022-08-17T06:12:18.884Z,30.86
2022-08-17T06:15:07.588Z,31.06
2022-08-17T06:17:34.835Z,31.36
2022-08-17T06:20:10.522Z,31.59
2022-08-17T06:22:44.771Z,31.60
2022-08-17T06:25:22.996Z,31.60
2022-08-17T06:28:20.212Z,31.79
2022-08-17T06:30:59.698Z,31.96
2022-08-17T06:33:35.396Z,31.60
2022-08-17T06:36:40.579Z,31.59
2022-08-17T06:39:39.738Z,31.84
2022-08-17T06:42:58.832Z,31.95
2022-08-17T06:45:15.155Z,32.24
2022-08-17T06:47:59.550Z,32.57
2022-08-17T06:50:42.593Z,32.92
2022-08-17T06:53:36.615Z,33.08
2022-08-17T06:56:06.453Z,33.33
2022-08-17T06:58:35.919Z,33.48
2022-08-17T07:01:09.954Z,33.66
2022-08-17T07:03:44.812Z,33.69
2022-08-17T07:06:18.915Z,33.82
2022-08-17T07:09:08.196Z,33.90
2022-08-17T07:11:51.848Z,34.19
2022-08-17T07:14:38.535Z,34.27
2022-08-17T07:17:13.442Z,34.57
2022-08-17T07:19:45.587Z,34.78
2022-08-17T07:22:58.141Z,34.70
2022-08-17T07:25:28.779Z,34.42
2022-08-17T07:28:00.415Z,34.06
2022-08-17T07:30:45.895Z,33.81
2022-08-17T07:33:24.229Z,34.09
2022-08-17T07:35:51.758Z,34.32
2022-08-17T07:38:28.477Z,34.33
2022-08-17T07:41:00.018Z,34.48
2022-08-17T07:43:41.874Z,34.61
2022-08-17T07:46:30.271Z,34.90
2022-08-17T07:49:08.761Z,34.53
2022-08-17T07:51:59.971Z,34.83
2022-08-17T07:54:42.855Z,35.25
2022-08-17T07:57:13.040Z,35.05
2022-08-17T08:00:04.355Z,35.23
2022-08-17T08:02:34.602Z,35.42
2022-08-17T08:05:30.742Z,35.61
2022-08-17T08:08:39.872Z,35.48
2022-08-17T08:11:10.643Z,35.62
2022-08-17T08:13:44.005Z,35.47
2022-08-17T08:16:24.706Z,35.55
2022-08-17T08:19:00.430Z,35.70
2022-08-17T08:21:39.434Z,35.97
2022-08-17T08:24:12.402Z,35.36
2022-08-17T08:26:49.172Z,35.04
2022-08-17T08:29:28.465Z,34.80
2022-08-17T08:32:22.362Z,35.22
2022-08-17T08:35:31.113Z,35.36
2022-08-17T08:38:23.902Z,35.47
2022-08-17T08:41:24.313Z,35.10
2022-08-17T08:44:08.201Z,35.66
2022-08-17T08:47:00.043Z,35.47
2022-08-17T08:50:06.944Z,35.12
2022-08-17T08:53:01.513Z,34.93
2022-08-17T08:55:48.193Z,35.30
2022-08-17T08:58:31.992Z,35.69
2022-08-17T09:01:48.225Z,35.72
2022-08-17T09:04:25.042Z,35.80
2022-08-17T09:07:28.377Z,35.84
2022-08-17T09:10:01.125Z,36.08
2022-08-17T09:12:41.906Z,36.12
2022-08-17T09:15:27.818Z,36.28
2022-08-17T09:19:01.184Z,36.31
2022-08-17T09:21:08.146Z,36.56
2022-08-17T09:23:45.002Z,36.22
2022-08-17T09:26:24.364Z,36.51
2022-08-17T09:28:56.043Z,36.45
2022-08-17T09:31:46.432Z,36.46
2022-08-17T09:34:22.463Z,36.32
2022-08-17T09:37:15.294Z,36.22
2022-08-17T09:40:02.620Z,36.34
2022-08-17T09:42:36.324Z,36.18
2022-08-17T09:45:19.786Z,36.00
2022-08-17T09:48:00.772Z,35.95
2022-08-17T09:51:07.160Z,35.77
2022-08-17T09:53:38.223Z,36.26
2022-08-17T09:56:43.766Z,35.87
2022-08-17T09:59:38.232Z,36.04
2022-08-17T10:02:34.304Z,36.04
2022-08-17T10:05:15.849Z,35.91
2022-08-17T10:08:09.627Z,36.09
2022-08-17T10:10:52.492Z,35.80
2022-08-17T10:13:35.571Z,35.92
2022-08-17T10:16:21.126Z,36.10
2022-08-17T10:19:02.264Z,36.52
2022-08-17T10:22:00.881Z,36.43
2022-08-17T10:25:21.175Z,36.06
2022-08-17T10:27:54.127Z,35.77
2022-08-17T10:30:25.257Z,35.89
2022-08-17T10:32:57.767Z,35.97
2022-08-17T10:35:36.007Z,35.65
2022-08-17T10:38:30.070Z,35.08
2022-08-17T10:41:06.293Z,35.61
2022-08-17T10:43:57.843Z,35.94
2022-08-17T10:47:11.882Z,35.98
2022-08-17T10:49:47.914Z,36.19
2022-08-17T10:52:21.942Z,36.34
2022-08-17T10:54:50.945Z,36.47
2022-08-17T10:57:40.726Z,36.06
2022-08-17T11:00:25.642Z,35.79
2022-08-17T11:02:57.754Z,36.11
2022-08-17T11:05:42.926Z,36.15
2022-08-17T11:08:37.826Z,35.99
2022-08-17T11:11:36.256Z,35.86
2022-08-17T11:14:24.976Z,36.03
2022-08-17T11:16:51.949Z,36.06
2022-08-17T11:19:40.814Z,35.96
2022-08-17T11:22:31.366Z,35.97
2022-08-17T11:25:17.678Z,35.85
2022-08-17T11:27:53.941Z,35.88
2022-08-17T11:30:48.772Z,35.95
2022-08-17T11:33:38.311Z,35.89
2022-08-17T11:36:17.732Z,35.90
2022-08-17T11:39:00.047Z,35.80
2022-08-17T11:41:46.277Z,35.80
2022-08-17T11:44:25.453Z,35.30
2022-08-17T11:47:41.993Z,35.38
2022-08-17T11:50:54.551Z,35.54
2022-08-17T11:53:54.347Z,35.65
2022-08-17T11:56:41.746Z,35.66
2022-08-17T11:59:33.432Z,35.60
2022-08-17T12:02:22.412Z,35.66
2022-08-17T12:05:03.452Z,35.55
2022-08-17T12:07:33.375Z,35.48
2022-08-17T12:10:01.398Z,35.21
2022-08-17T12:12:36.028Z,35.39
2022-08-17T12:15:12.066Z,35.52
2022-08-17T12:17:42.651Z,35.55
2022-08-17T12:20:15.742Z,35.50
2022-08-17T12:23:07.895Z,35.31
2022-08-17T12:25:39.661Z,35.44
2022-08-17T12:28:26.893Z,35.34
2022-08-17T12:30:56.463Z,35.37
2022-08-17T12:33:28.212Z,35.44
2022-08-17T12:36:05.229Z,35.35
2022-08-17T12:38:36.318Z,35.47
2022-08-17T12:41:24.961Z,35.58
2022-08-17T12:44:04.999Z,35.61
2022-08-17T12:46:51.704Z,35.58
2022-08-17T12:49:36.458Z,35.73
2022-08-17T12:52:14.288Z,35.65
2022-08-17T12:54:44.317Z,35.41
2022-08-17T12:57:33.898Z,35.46
2022-08-17T13:00:09.849Z,35.53
2022-08-17T13:02:40.416Z,35.34
2022-08-17T13:05:18.068Z,35.45
2022-08-17T13:07:46.803Z,35.39
2022-08-17T13:10:21.729Z,35.52
2022-08-17T13:12:51.087Z,35.56
2022-08-17T13:15:50.914Z,35.53
2022-08-17T13:18:39.188Z,35.58
2022-08-17T13:21:24.097Z,35.65
2022-08-17T13:24:10.883Z,35.69
2022-08-17T13:26:44.734Z,35.51
2022-08-17T13:29:24.254Z,35.58
2022-08-17T13:31:58.901Z,35.31
2022-08-17T13:35:15.444Z,35.31
2022-08-17T13:37:32.665Z,35.10
2022-08-17T13:40:21.984Z,34.97
2022-08-17T13:42:53.985Z,34.80
2022-08-17T13:45:34.875Z,34.83
2022-08-17T13:48:11.167Z,34.81
2022-08-17T13:50:41.083Z,34.90
2022-08-17T13:53:33.684Z,34.94
2022-08-17T13:56:37.636Z,34.94
2022-08-17T13:59:10.082Z,35.08
2022-08-17T14:01:53.635Z,35.12
2022-08-17T14:04:29.632Z,35.03
2022-08-17T14:07:22.272Z,34.97
2022-08-17T14:10:00.213Z,35.04
2022-08-17T14:12:30.642Z,35.00
2022-08-17T14:14:59.084Z,34.77
2022-08-17T14:17:29.049Z,34.84
2022-08-17T14:19:56.447Z,34.55
2022-08-17T14:22:34.714Z,34.23
2022-08-17T14:25:02.517Z,34.26
2022-08-17T14:27:33.734Z,34.33
2022-08-17T14:30:20.158Z,34.39
2022-08-17T14:32:49.235Z,34.46
2022-08-17T14:35:16.298Z,34.41
2022-08-17T14:37:44.956Z,34.41
2022-08-17T14:40:14.533Z,34.18
2022-08-17T14:42:44.224Z,33.88
2022-08-17T14:45:30.044Z,33.94
2022-08-17T14:48:07.837Z,34.05
2022-08-17T14:50:41.414Z,34.01
2022-08-17T14:53:11.885Z,34.05
2022-08-17T14:55:40.918Z,34.02
2022-08-17T14:58:09.344Z,34.07
2022-08-17T15:00:37.551Z,34.05
2022-08-17T15:03:04.695Z,34.00
2022-08-17T15:05:35.605Z,34.03
2022-08-17T15:08:04.733Z,34.05
2022-08-17T15:10:32.367Z,34.06
2022-08-17T15:13:00.415Z,34.06
2022-08-17T15:15:28.417Z,33.91
2022-08-17T15:17:56.034Z,33.83
2022-08-17T15:20:27.770Z,33.89
2022-08-17T15:22:56.365Z,33.91
2022-08-17T15:25:28.254Z,33.85
2022-08-17T15:27:58.378Z,33.83
2022-08-17T15:30:26.202Z,33.71
2022-08-17T15:32:55.049Z,33.67
2022-08-17T15:35:27.737Z,33.69
2022-08-17T15:38:11.716Z,33.53
2022-08-17T15:40:45.418Z,33.48
2022-08-17T15:43:22.004Z,33.37
2022-08-17T15:46:00.165Z,33.31
2022-08-17T15:48:42.046Z,33.27
2022-08-17T15:51:16.446Z,33.19
2022-08-17T15:53:45.926Z,33.11
2022-08-17T15:56:15.195Z,33.03
2022-08-17T15:58:44.379Z,32.89
2022-08-17T16:01:14.658Z,32.74
2022-08-17T16:04:05.012Z,32.62
2022-08-17T16:06:32.998Z,32.58
2022-08-17T16:09:00.642Z,32.51
2022-08-17T16:11:27.569Z,32.50
2022-08-17T16:13:54.601Z,32.45
2022-08-17T16:16:23.821Z,32.41
2022-08-17T16:18:54.556Z,32.32
2022-08-17T16:21:25.903Z,32.27
2022-08-17T16:23:56.573Z,32.24
2022-08-17T16:26:23.667Z,32.17
2022-08-17T16:28:51.494Z,32.11
2022-08-17T16:31:18.413Z,32.06
2022-08-17T16:33:58.408Z,31.98
2022-08-17T16:36:32.444Z,31.86
2022-08-17T16:39:01.184Z,31.79
2022-08-17T16:41:46.746Z,31.71
2022-08-17T16:44:19.683Z,31.63
2022-08-17T16:46:48.054Z,31.51
2022-08-17T16:49:36.325Z,31.43
2022-08-17T16:52:10.720Z,31.31
2022-08-17T16:54:41.701Z,31.24
2022-08-17T16:57:08.744Z,31.15
2022-08-17T16:59:42.220Z,31.03
2022-08-17T17:02:23.794Z,30.94
2022-08-17T17:04:57.813Z,30.87
2022-08-17T17:07:36.535Z,30.77
2022-08-17T17:10:16.105Z,30.55
2022-08-17T17:13:02.006Z,30.55
2022-08-17T17:15:46.371Z,30.42
2022-08-17T17:18:15.527Z,30.30
2022-08-17T17:20:55.018Z,30.18
2022-08-17T17:23:48.317Z,30.05
2022-08-17T17:26:40.920Z,29.92
2022-08-17T17:29:47.174Z,29.81
2022-08-17T17:32:48.428Z,29.69
2022-08-17T17:35:38.519Z,29.57
2022-08-17T17:38:12.338Z,29.51
2022-08-17T17:40:43.038Z,29.40
2022-08-17T17:43:37.674Z,29.29
2022-08-17T17:46:27.767Z,29.21
2022-08-17T17:48:55.413Z,29.10
2022-08-17T17:52:09.263Z,29.10
2022-08-17T17:54:16.278Z,28.98
2022-08-17T17:57:03.419Z,28.89
2022-08-17T18:00:10.016Z,28.80
2022-08-17T18:02:55.473Z,28.66
2022-08-17T18:05:37.709Z,28.53
2022-08-17T18:08:10.930Z,28.35
2022-08-17T18:10:54.719Z,28.23
2022-08-17T18:13:41.506Z,28.10
2022-08-17T18:16:14.415Z,28.05
2022-08-17T18:18:44.908Z,28.00
2022-08-17T18:21:20.576Z,27.98
2022-08-17T18:23:56.398Z,27.91
2022-08-17T18:26:37.665Z,27.88
2022-08-17T18:29:28.175Z,27.83
2022-08-17T18:32:22.047Z,27.76
2022-08-17T18:34:53.936Z,27.58
2022-08-17T18:37:33.026Z,27.57
2022-08-17T18:40:20.537Z,27.48
2022-08-17T18:42:50.499Z,27.49
2022-08-17T18:45:34.756Z,27.16
2022-08-17T18:48:02.597Z,26.93
2022-08-17T18:50:42.562Z,26.90
2022-08-17T18:53:41.152Z,26.89
2022-08-17T18:56:31.336Z,26.88
2022-08-17T18:59:28.222Z,26.83
2022-08-17T19:02:23.220Z,26.69
2022-08-17T19:05:13.599Z,26.66
2022-08-17T19:07:46.807Z,26.48
2022-08-17T19:10:32.096Z,26.45
2022-08-17T19:13:29.458Z,26.31
2022-08-17T19:16:19.077Z,26.37
2022-08-17T19:18:52.178Z,26.31
2022-08-17T19:21:25.542Z,26.32
2022-08-17T19:23:59.170Z,26.29
2022-08-17T19:26:51.068Z,26.16
2022-08-17T19:29:35.567Z,26.15
2022-08-17T19:32:03.427Z,26.13
2022-08-17T19:34:34.670Z,26.10
2022-08-17T19:37:07.687Z,26.10
2022-08-17T19:40:10.064Z,26.06
2022-08-17T19:42:39.524Z,26.07
2022-08-17T19:45:16.067Z,26.08
2022-08-17T19:47:57.074Z,26.08
2022-08-17T19:51:07.657Z,26.04
2022-08-17T19:54:04.411Z,26.02
2022-08-17T19:56:45.184Z,26.00
2022-08-17T19:59:48.989Z,25.96
2022-08-17T20:02:39.646Z,25.95
2022-08-17T20:05:16.354Z,25.92
2022-08-17T20:08:07.897Z,25.85
2022-08-17T20:10:39.024Z,25.84
2022-08-17T20:13:13.625Z,25.81
2022-08-17T20:15:43.461Z,25.86
2022-08-17T20:18:24.506Z,25.80
2022-08-17T20:21:11.217Z,25.80
2022-08-17T20:24:06.392Z,25.80
2022-08-17T20:26:59.298Z,25.72
2022-08-17T20:29:39.880Z,25.71
2022-08-17T20:32:18.505Z,25.63
2022-08-17T20:34:47.295Z,25.59
2022-08-17T20:37:14.540Z,25.62
2022-08-17T20:39:45.657Z,25.59
2022-08-17T20:42:15.647Z,25.60
2022-08-17T20:44:43.376Z,25.56
2022-08-17T20:47:27.499Z,25.47
2022-08-17T20:50:06.145Z,25.33
2022-08-17T20:52:36.081Z,25.27
2022-08-17T20:55:05.106Z,25.30
2022-08-17T20:57:32.285Z,25.33
2022-08-17T21:00:17.563Z,25.31
2022-08-17T21:02:47.591Z,25.33
2022-08-17T21:05:30.090Z,25.29
2022-08-17T21:08:01.492Z,25.28
2022-08-17T21:10:34.184Z,25.33
2022-08-17T21:13:16.136Z,25.33
2022-08-17T21:16:01.473Z,25.31
2022-08-17T21:18:51.614Z,25.32
2022-08-17T21:22:03.330Z,25.26
2022-08-17T21:24:32.843Z,25.36
2022-08-17T21:27:32.305Z,25.31
2022-08-17T21:30:01.834Z,25.35
2022-08-17T21:32:40.401Z,25.35
2022-08-17T21:35:12.603Z,25.36
2022-08-17T21:37:43.442Z,25.33
2022-08-17T21:40:10.498Z,25.29
2022-08-17T21:42:46.903Z,25.22
2022-08-17T21:45:31.276Z,25.09
2022-08-17T21:48:13.665Z,24.80
2022-08-17T21:50:43.943Z,24.68
2022-08-17T21:53:23.032Z,24.45
2022-08-17T21:55:52.657Z,24.35
2022-08-17T21:58:31.469Z,24.39
2022-08-17T22:01:20.540Z,24.40
2022-08-17T22:03:57.088Z,24.50
2022-08-17T22:06:29.147Z,24.63
2022-08-17T22:09:02.524Z,24.79
2022-08-17T22:11:29.736Z,24.85
2022-08-17T22:14:05.122Z,24.78
2022-08-17T22:16:33.424Z,24.61
2022-08-17T22:19:00.795Z,24.53
2022-08-17T22:21:28.086Z,24.52
2022-08-17T22:24:04.862Z,24.52
2022-08-17T22:26:59.597Z,24.48
2022-08-17T22:29:57.214Z,24.45
2022-08-17T22:32:41.066Z,24.38
2022-08-17T22:35:35.248Z,24.26
2022-08-17T22:38:20.771Z,24.24
2022-08-17T22:41:22.203Z,24.11
2022-08-17T22:43:50.374Z,24.18
2022-08-17T22:46:24.060Z,24.22
2022-08-17T22:48:58.067Z,24.18
2022-08-17T22:51:31.176Z,24.19
2022-08-17T22:54:20.640Z,24.22
2022-08-17T22:57:29.357Z,24.21
2022-08-17T22:59:57.704Z,24.20
2022-08-17T23:02:30.719Z,24.10
2022-08-17T23:05:17.025Z,24.12
2022-08-17T23:07:45.667Z,23.93
2022-08-17T23:10:13.909Z,23.92
2022-08-17T23:12:41.303Z,23.87
2022-08-17T23:15:16.428Z,23.96
2022-08-17T23:17:44.536Z,23.88
2022-08-17T23:20:14.863Z,23.94
2022-08-17T23:22:52.209Z,23.89
2022-08-17T23:25:28.152Z,23.95
2022-08-17T23:27:57.546Z,23.89
2022-08-17T23:30:25.782Z,23.87
2022-08-17T23:32:54.589Z,23.88
2022-08-17T23:35:40.540Z,23.86
2022-08-17T23:38:13.138Z,23.80
2022-08-17T23:40:41.054Z,23.78
2022-08-17T23:43:24.146Z,23.81
2022-08-17T23:45:54.827Z,23.85
2022-08-17T23:48:27.797Z,23.87
2022-08-17T23:51:04.883Z,23.87
2022-08-17T23:53:35.097Z,23.87
2022-08-17T23:56:09.636Z,24.03
2022-08-17T23:58:42.749Z,24.03
